Time;durP1;ratioP1;P1;durP2;ratioP2;P2;SDS_P1;SDS_P2;PMS_P1;PMS_P2;Temp;Humidity;BMP_temperature;BMP_pressure;BME280_temperature;BME280_humidity;BME280_pressure;Samples;Min_cycle;Max_cycle;Signal;HPM_P1;HPM_P2
2021/12/07 00:00:06;;;;;;;18.50;11.25;;;;;;;;;;5078662;28;20127;-70
2021/12/07 00:02:32;;;;;;;17.75;10.73;;;;;;;;;;5070291;28;20056;-71
2021/12/07 00:04:59;;;;;;;13.45;9.35;;;;;;;;;;5069756;28;20055;-70
2021/12/07 00:07:25;;;;;;;14.90;9.93;;;;;;;;;;5067634;28;20041;-71
2021/12/07 00:09:51;;;;;;;14.50;10.25;;;;;;;;;;5070707;28;20063;-71
2021/12/07 00:12:18;;;;;;;15.50;10.15;;;;;;;;;;5068735;28;20576;-71
2021/12/07 00:14:44;;;;;;;14.75;10.65;;;;;;;;;;5070444;28;20040;-70
2021/12/07 00:17:11;;;;;;;16.20;11.25;;;;;;;;;;5063675;28;20044;-70
2021/12/07 00:19:37;;;;;;;19.02;11.88;;;;;;;;;;5065870;28;20045;-70
2021/12/07 00:22:05;;;;;;;17.15;11.13;;;;;;;;;;5070374;28;20032;-71
2021/12/07 00:24:31;;;;;;;13.38;9.85;;;;;;;;;;5074206;28;20052;-70
2021/12/07 00:26:57;;;;;;;18.48;11.48;;;;;;;;;;5069249;28;20032;-71
2021/12/07 00:29:24;;;;;;;14.95;10.88;;;;;;;;;;5070716;28;20055;-70
2021/12/07 00:32:05;;;;;;;15.10;11.40;;;;;;;;;;5070108;28;20384;-72
2021/12/07 00:36:57;;;;;;;14.68;9.18;;;;;;;;;;5066551;28;20056;-71
2021/12/07 00:39:24;;;;;;;15.57;9.93;;;;;;;;;;5074879;28;20075;-70
2021/12/07 00:41:51;;;;;;;12.40;8.80;;;;;;;;;;5071084;28;20040;-71
2021/12/07 00:44:18;;;;;;;13.77;10.23;;;;;;;;;;5070127;28;20079;-71
2021/12/07 00:46:44;;;;;;;12.98;9.25;;;;;;;;;;5069003;28;20037;-71
2021/12/07 00:49:10;;;;;;;14.98;9.30;;;;;;;;;;5068598;28;20076;-70
2021/12/07 00:51:37;;;;;;;14.70;10.38;;;;;;;;;;5070811;28;20517;-71
2021/12/07 00:54:03;;;;;;;13.40;10.00;;;;;;;;;;5104400;28;20040;-71
2021/12/07 00:56:29;;;;;;;12.55;9.65;;;;;;;;;;5069570;28;20558;-71
2021/12/07 00:58:56;;;;;;;13.80;9.20;;;;;;;;;;5070755;28;20068;-71
2021/12/07 01:01:22;;;;;;;14.80;9.65;;;;;;;;;;5070836;28;20149;-71
2021/12/07 01:03:49;;;;;;;13.95;8.85;;;;;;;;;;5073805;28;20538;-70
2021/12/07 01:09:03;;;;;;;13.45;9.13;;;;;;;;;;5074097;28;20041;-71
2021/12/07 01:25:24;;;;;;;11.63;7.88;;;;;;;;;;5075099;28;20551;-71
2021/12/07 01:27:52;;;;;;;13.32;8.23;;;;;;;;;;5105379;28;20036;-71
2021/12/07 01:30:22;;;;;;;8.15;6.57;;;;;;;;;;5067226;28;20421;-71
2021/12/07 01:41:23;;;;;;;10.93;8.20;;;;;;;;;;5062309;28;20041;-71
2021/12/07 01:59:56;;;;;;;12.48;8.95;;;;;;;;;;5074366;28;20047;-70
2021/12/07 02:02:23;;;;;;;11.73;7.40;;;;;;;;;;5073752;28;20045;-71
2021/12/07 02:04:50;;;;;;;13.18;8.55;;;;;;;;;;5073209;28;20342;-71
2021/12/07 02:07:16;;;;;;;13.65;9.55;;;;;;;;;;5073829;28;20071;-70
2021/12/07 02:09:47;;;;;;;13.02;8.77;;;;;;;;;;5075957;28;20470;-71
2021/12/07 02:12:13;;;;;;;13.05;8.75;;;;;;;;;;5072690;28;20048;-71
2021/12/07 02:14:40;;;;;;;13.27;8.10;;;;;;;;;;5073222;28;20071;-71
2021/12/07 02:17:11;;;;;;;11.50;8.25;;;;;;;;;;5071495;28;20127;-71
2021/12/07 02:19:38;;;;;;;12.15;8.52;;;;;;;;;;5070568;28;20048;-70
2021/12/07 02:22:04;;;;;;;11.55;8.88;;;;;;;;;;5074939;28;20047;-71
2021/12/07 02:24:31;;;;;;;12.35;8.38;;;;;;;;;;5072193;28;20044;-71
2021/12/07 02:26:58;;;;;;;10.75;8.13;;;;;;;;;;5071075;28;20119;-71
2021/12/07 02:29:24;;;;;;;14.82;9.13;;;;;;;;;;5085108;28;20036;-71
2021/12/07 02:31:51;;;;;;;13.93;9.43;;;;;;;;;;5083487;28;20437;-70
2021/12/07 02:34:17;;;;;;;9.43;8.00;;;;;;;;;;5073609;28;20040;-70
2021/12/07 02:36:44;;;;;;;10.20;7.78;;;;;;;;;;5075742;28;20059;-71
2021/12/07 02:39:12;;;;;;;12.23;8.13;;;;;;;;;;5071837;28;20041;-71
2021/12/07 02:41:38;;;;;;;11.82;8.00;;;;;;;;;;5082041;28;20115;-70
2021/12/07 02:44:06;;;;;;;11.80;7.75;;;;;;;;;;5074000;28;20101;-71
2021/12/07 02:46:33;;;;;;;10.90;7.70;;;;;;;;;;5055122;28;20032;-71
2021/12/07 02:48:59;;;;;;;12.07;8.77;;;;;;;;;;5073525;28;20047;-71
2021/12/07 02:51:25;;;;;;;12.98;8.60;;;;;;;;;;5073244;28;20501;-71
2021/12/07 02:53:51;;;;;;;10.30;7.60;;;;;;;;;;5101325;28;20075;-71
2021/12/07 02:56:18;;;;;;;11.25;8.27;;;;;;;;;;5082079;28;20123;-71
2021/12/07 02:58:44;;;;;;;11.57;8.63;;;;;;;;;;5073677;28;20044;-72
2021/12/07 03:01:17;;;;;;;12.15;8.23;;;;;;;;;;5070709;28;20420;-71
2021/12/07 03:03:58;;;;;;;11.13;8.57;;;;;;;;;;5073425;28;20055;-71
2021/12/07 03:06:39;;;;;;;15.02;9.68;;;;;;;;;;5076565;28;20505;-71
2021/12/07 03:28:20;;;;;;;14.90;9.10;;;;;;;;;;5072605;28;20044;-71
2021/12/07 03:30:47;;;;;;;12.65;9.48;;;;;;;;;;5072584;28;20044;-71
2021/12/07 03:33:13;;;;;;;11.85;8.45;;;;;;;;;;5067831;28;20142;-71
2021/12/07 03:35:39;;;;;;;13.77;9.45;;;;;;;;;;5071570;28;20489;-71
2021/12/07 03:38:07;;;;;;;12.45;8.77;;;;;;;;;;5082868;28;20471;-71
2021/12/07 03:40:33;;;;;;;11.13;8.05;;;;;;;;;;5064655;28;20068;-71
2021/12/07 03:42:59;;;;;;;12.38;8.20;;;;;;;;;;5066985;28;20067;-71
2021/12/07 03:45:26;;;;;;;11.40;8.77;;;;;;;;;;5072549;28;20217;-71
2021/12/07 03:47:52;;;;;;;12.60;8.27;;;;;;;;;;5072248;28;20111;-71
2021/12/07 03:50:21;;;;;;;13.20;8.82;;;;;;;;;;5068027;28;20367;-71
2021/12/07 03:52:48;;;;;;;12.18;8.18;;;;;;;;;;5072253;28;20048;-71
2021/12/07 03:55:14;;;;;;;14.25;9.55;;;;;;;;;;5070634;28;20378;-71
2021/12/07 03:57:40;;;;;;;14.88;10.10;;;;;;;;;;5070908;28;20044;-71
2021/12/07 04:00:08;;;;;;;19.10;9.55;;;;;;;;;;5069572;28;20040;-71
2021/12/07 04:02:39;;;;;;;15.45;8.88;;;;;;;;;;5076079;28;20427;-71
2021/12/07 04:05:10;;;;;;;11.35;8.02;;;;;;;;;;5063968;28;20091;-71
2021/12/07 04:07:37;;;;;;;16.88;10.20;;;;;;;;;;5072359;28;20559;-71
2021/12/07 04:10:03;;;;;;;15.55;7.38;;;;;;;;;;5065918;28;20084;-70
2021/12/07 04:12:29;;;;;;;11.93;8.40;;;;;;;;;;5071790;28;20490;-71
2021/12/07 04:14:57;;;;;;;12.63;8.25;;;;;;;;;;5070589;28;20041;-71
2021/12/07 04:17:25;;;;;;;12.40;8.95;;;;;;;;;;5071179;28;20401;-71
2021/12/07 04:19:53;;;;;;;14.57;8.18;;;;;;;;;;5051765;28;20506;-71
2021/12/07 04:22:19;;;;;;;12.93;8.50;;;;;;;;;;5070983;28;20044;-71
2021/12/07 04:24:45;;;;;;;12.38;8.18;;;;;;;;;;5067742;28;20430;-71
2021/12/07 04:27:11;;;;;;;10.85;8.07;;;;;;;;;;5067852;28;20060;-71
2021/12/07 04:29:37;;;;;;;12.75;7.82;;;;;;;;;;5068684;28;20042;-71
2021/12/07 04:32:04;;;;;;;11.40;6.75;;;;;;;;;;5067701;28;20045;-71
2021/12/07 04:34:30;;;;;;;11.23;7.22;;;;;;;;;;5087903;28;20040;-71
2021/12/07 04:36:56;;;;;;;13.48;8.15;;;;;;;;;;5078077;28;20464;-71
2021/12/07 04:39:22;;;;;;;14.48;7.05;;;;;;;;;;5070145;28;20079;-71
2021/12/07 04:41:50;;;;;;;10.27;6.43;;;;;;;;;;5073367;28;20047;-71
2021/12/07 04:44:16;;;;;;;16.42;8.07;;;;;;;;;;5064065;28;20135;-71
2021/12/07 04:46:55;;;;;;;14.13;6.90;;;;;;;;;;5068872;28;20041;-71
2021/12/07 04:57:40;;;;;;;12.05;6.88;;;;;;;;;;5051657;28;20084;-71
2021/12/07 05:00:08;;;;;;;11.13;5.85;;;;;;;;;;5069947;28;20098;-70
2021/12/07 05:02:37;;;;;;;8.75;5.50;;;;;;;;;;5086950;28;20102;-70
2021/12/07 05:05:03;;;;;;;6.63;4.32;;;;;;;;;;5071153;28;20040;-70
2021/12/07 05:07:37;;;;;;;11.38;5.13;;;;;;;;;;5080161;28;20048;-71
2021/12/07 05:18:35;;;;;;;7.00;3.60;;;;;;;;;;5069429;28;20294;-71
2021/12/07 05:34:54;;;;;;;7.20;2.70;;;;;;;;;;5062949;28;20079;-71
2021/12/07 05:37:45;;;;;;;12.57;2.50;;;;;;;;;;5061366;28;20424;-71
2021/12/07 05:40:13;;;;;;;7.03;3.05;;;;;;;;;;5067667;28;20036;-71
2021/12/07 05:42:40;;;;;;;10.35;3.95;;;;;;;;;;5063421;28;20123;-71
2021/12/07 05:45:14;;;;;;;5.10;3.38;;;;;;;;;;5067592;28;20094;-71
2021/12/07 05:47:41;;;;;;;7.32;2.95;;;;;;;;;;5067656;28;20041;-71
2021/12/07 05:50:07;;;;;;;10.13;3.40;;;;;;;;;;5067048;28;20467;-71
2021/12/07 05:52:34;;;;;;;4.55;2.33;;;;;;;;;;5076116;28;20067;-71
2021/12/07 05:55:00;;;;;;;9.40;2.67;;;;;;;;;;5073504;28;20041;-71
2021/12/07 05:57:26;;;;;;;9.27;3.10;;;;;;;;;;5070591;28;20063;-71
2021/12/07 05:59:52;;;;;;;10.00;2.88;;;;;;;;;;5084321;28;20041;-71
2021/12/07 06:02:18;;;;;;;8.40;3.35;;;;;;;;;;5099347;28;20113;-71
2021/12/07 06:04:44;;;;;;;5.80;2.65;;;;;;;;;;5064167;28;20037;-71
2021/12/07 06:07:11;;;;;;;8.85;3.00;;;;;;;;;;5067456;28;20158;-71
2021/12/07 06:09:37;;;;;;;4.43;2.40;;;;;;;;;;5100414;28;20482;-70
2021/12/07 06:12:04;;;;;;;5.43;2.47;;;;;;;;;;5069937;28;20040;-70
2021/12/07 06:14:34;;;;;;;4.32;2.53;;;;;;;;;;5074555;28;20502;-71
2021/12/07 06:17:01;;;;;;;8.15;3.25;;;;;;;;;;5076185;28;20032;-71
2021/12/07 06:19:27;;;;;;;8.45;3.13;;;;;;;;;;5074406;28;20072;-70
2021/12/07 06:21:54;;;;;;;8.73;2.63;;;;;;;;;;5069266;28;20449;-71
2021/12/07 06:24:20;;;;;;;10.70;2.83;;;;;;;;;;5074877;28;20522;-71
2021/12/07 06:26:47;;;;;;;4.68;2.45;;;;;;;;;;5069063;28;20655;-71
2021/12/07 06:29:13;;;;;;;6.72;2.60;;;;;;;;;;5070104;28;20390;-70
2021/12/07 06:31:39;;;;;;;6.55;2.83;;;;;;;;;;5071416;28;20048;-71
2021/12/07 06:34:05;;;;;;;4.97;2.55;;;;;;;;;;5072057;28;20563;-71
2021/12/07 06:36:31;;;;;;;6.85;3.25;;;;;;;;;;5069388;28;20039;-71
2021/12/07 06:38:57;;;;;;;4.95;2.58;;;;;;;;;;5073626;28;20068;-71
2021/12/07 06:41:23;;;;;;;8.48;3.08;;;;;;;;;;5069968;28;20040;-71
2021/12/07 06:43:50;;;;;;;6.57;2.20;;;;;;;;;;5070448;28;20048;-71
2021/12/07 06:46:16;;;;;;;6.45;2.92;;;;;;;;;;5070939;28;20094;-71
2021/12/07 06:48:42;;;;;;;6.65;2.42;;;;;;;;;;5057992;28;20047;-71
2021/12/07 06:51:08;;;;;;;4.32;2.35;;;;;;;;;;5078921;28;20042;-71
2021/12/07 06:53:37;;;;;;;3.92;2.25;;;;;;;;;;5077349;28;20064;-71
2021/12/07 06:56:07;;;;;;;11.98;3.30;;;;;;;;;;5085547;28;20490;-71
2021/12/07 06:58:34;;;;;;;7.25;3.10;;;;;;;;;;5066250;28;20508;-71
2021/12/07 07:01:00;;;;;;;8.27;4.07;;;;;;;;;;5073207;28;20083;-71
2021/12/07 07:03:26;;;;;;;5.88;2.67;;;;;;;;;;5069910;28;20089;-70
2021/12/07 07:05:53;;;;;;;10.07;3.83;;;;;;;;;;5095781;27;20489;-70
2021/12/07 07:08:19;;;;;;;14.38;3.38;;;;;;;;;;5072507;28;20528;-70
2021/12/07 07:10:46;;;;;;;10.30;4.05;;;;;;;;;;5071034;28;20043;-70
2021/12/07 07:13:12;;;;;;;7.70;3.70;;;;;;;;;;5081416;28;20424;-70
2021/12/07 07:15:40;;;;;;;8.10;3.03;;;;;;;;;;5070859;28;20066;-71
2021/12/07 07:18:06;;;;;;;9.98;3.33;;;;;;;;;;5053146;28;20041;-71
2021/12/07 07:20:32;;;;;;;5.38;2.75;;;;;;;;;;5070917;28;20039;-70
2021/12/07 07:22:58;;;;;;;5.95;3.10;;;;;;;;;;5071053;28;20040;-71
2021/12/07 07:25:25;;;;;;;5.43;2.90;;;;;;;;;;5068122;28;20080;-71
2021/12/07 07:27:51;;;;;;;10.00;2.90;;;;;;;;;;5072230;28;20115;-71
2021/12/07 07:30:18;;;;;;;9.35;2.85;;;;;;;;;;5068662;28;20041;-70
2021/12/07 07:32:45;;;;;;;8.25;3.28;;;;;;;;;;5070052;28;20079;-70
2021/12/07 07:35:12;;;;;;;7.20;3.30;;;;;;;;;;5072152;28;20048;-70
2021/12/07 07:37:39;;;;;;;10.50;2.42;;;;;;;;;;5070509;28;20040;-69
2021/12/07 07:40:09;;;;;;;7.72;3.05;;;;;;;;;;5069497;28;20044;-69
2021/12/07 07:42:35;;;;;;;5.18;2.20;;;;;;;;;;5072878;28;20047;-69
2021/12/07 07:45:01;;;;;;;11.50;3.42;;;;;;;;;;5069367;28;20103;-70
2021/12/07 07:47:27;;;;;;;10.98;2.78;;;;;;;;;;5068213;28;20394;-70
2021/12/07 07:49:53;;;;;;;10.50;3.05;;;;;;;;;;5071291;28;20517;-70
2021/12/07 07:52:19;;;;;;;8.38;2.88;;;;;;;;;;5070685;28;20127;-70
2021/12/07 07:54:46;;;;;;;14.07;4.60;;;;;;;;;;5070845;28;20040;-70
2021/12/07 07:57:12;;;;;;;8.55;3.72;;;;;;;;;;5080674;28;20123;-70
2021/12/07 07:59:39;;;;;;;7.88;2.90;;;;;;;;;;5072464;28;20454;-69
2021/12/07 08:02:06;;;;;;;10.57;2.78;;;;;;;;;;5073039;28;20486;-69
2021/12/07 08:04:32;;;;;;;10.23;3.53;;;;;;;;;;5080190;28;20036;-70
2021/12/07 08:06:58;;;;;;;7.60;2.67;;;;;;;;;;5071727;28;20037;-70
2021/12/07 08:09:24;;;;;;;8.35;3.00;;;;;;;;;;5072360;28;20551;-70
2021/12/07 08:11:50;;;;;;;24.65;2.92;;;;;;;;;;5071368;28;20040;-70
2021/12/07 08:14:17;;;;;;;9.93;3.38;;;;;;;;;;5070246;28;20041;-72
2021/12/07 08:16:44;;;;;;;10.90;2.67;;;;;;;;;;5056656;28;20037;-70
2021/12/07 08:19:10;;;;;;;11.50;3.15;;;;;;;;;;5066776;28;20521;-70
2021/12/07 08:21:36;;;;;;;7.68;3.10;;;;;;;;;;5061845;28;20123;-70
2021/12/07 08:24:03;;;;;;;11.52;3.15;;;;;;;;;;5069657;28;20033;-70
2021/12/07 08:26:29;;;;;;;8.07;3.38;;;;;;;;;;5070206;28;20044;-70
2021/12/07 08:28:57;;;;;;;11.60;3.88;;;;;;;;;;5072299;28;20083;-70
2021/12/07 08:31:24;;;;;;;15.45;3.95;;;;;;;;;;5082182;28;20135;-70
2021/12/07 08:33:50;;;;;;;17.80;4.10;;;;;;;;;;5069035;28;20379;-70
2021/12/07 08:36:16;;;;;;;5.88;2.85;;;;;;;;;;5071448;28;20115;-70
2021/12/07 08:38:43;;;;;;;6.38;2.88;;;;;;;;;;5070263;28;20040;-70
2021/12/07 08:41:09;;;;;;;10.75;4.03;;;;;;;;;;5071370;28;20040;-70
2021/12/07 08:43:36;;;;;;;14.55;4.03;;;;;;;;;;5072858;28;20039;-70
2021/12/07 08:46:03;;;;;;;15.57;3.78;;;;;;;;;;5081176;28;20048;-71
2021/12/07 08:48:29;;;;;;;15.38;4.13;;;;;;;;;;5071891;28;20044;-71
2021/12/07 08:50:56;;;;;;;9.13;4.40;;;;;;;;;;5071132;28;20070;-71
2021/12/07 08:53:23;;;;;;;13.27;3.63;;;;;;;;;;5072291;28;20045;-71
2021/12/07 09:01:20;;;;;;;7.70;3.50;;;;;;;;;;5071509;28;20049;-71
2021/12/07 09:03:46;;;;;;;15.18;4.07;;;;;;;;;;5062847;28;20044;-71
2021/12/07 09:06:13;;;;;;;9.65;4.03;;;;;;;;;;5072329;28;20041;-71
2021/12/07 09:08:42;;;;;;;15.43;3.90;;;;;;;;;;5067700;28;20044;-71
2021/12/07 09:11:10;;;;;;;8.80;2.97;;;;;;;;;;5097551;28;20080;-70
2021/12/07 09:13:36;;;;;;;26.00;4.80;;;;;;;;;;5078222;28;20041;-70
2021/12/07 09:16:03;;;;;;;7.63;3.05;;;;;;;;;;5076457;28;20032;-71
2021/12/07 09:18:30;;;;;;;6.03;3.25;;;;;;;;;;5069964;28;20044;-71
2021/12/07 09:20:56;;;;;;;15.88;5.95;;;;;;;;;;5072301;28;20193;-71
2021/12/07 09:23:23;;;;;;;12.55;4.07;;;;;;;;;;5077240;28;20074;-71
2021/12/07 09:25:49;;;;;;;11.07;3.78;;;;;;;;;;5070891;28;20036;-71
2021/12/07 09:28:16;;;;;;;10.55;4.50;;;;;;;;;;5073948;28;20037;-71
2021/12/07 09:30:42;;;;;;;7.90;3.80;;;;;;;;;;5073565;28;20047;-71
2021/12/07 09:33:08;;;;;;;11.10;4.28;;;;;;;;;;5072964;28;20517;-71
2021/12/07 09:35:35;;;;;;;7.18;3.67;;;;;;;;;;5077300;28;20508;-70
2021/12/07 09:38:02;;;;;;;9.60;4.25;;;;;;;;;;5074798;28;20032;-71
2021/12/07 09:40:28;;;;;;;18.02;4.97;;;;;;;;;;5071827;28;20441;-71
2021/12/07 09:42:56;;;;;;;9.13;3.60;;;;;;;;;;5084995;28;20458;-71
2021/12/07 09:45:22;;;;;;;9.55;4.10;;;;;;;;;;5098028;28;20070;-71
2021/12/07 09:47:49;;;;;;;7.18;3.63;;;;;;;;;;5070254;28;20122;-71
2021/12/07 09:50:17;;;;;;;9.55;3.08;;;;;;;;;;5075195;28;20517;-71
2021/12/07 09:52:47;;;;;;;11.50;3.78;;;;;;;;;;5073974;28;20470;-71
2021/12/07 09:55:13;;;;;;;9.45;3.45;;;;;;;;;;5072479;28;20082;-70
2021/12/07 09:57:39;;;;;;;11.68;3.92;;;;;;;;;;5082252;28;20085;-70
2021/12/07 10:00:07;;;;;;;13.70;4.28;;;;;;;;;;5071268;28;20040;-71
2021/12/07 10:02:33;;;;;;;15.45;4.45;;;;;;;;;;5072287;28;20036;-71
2021/12/07 10:04:59;;;;;;;11.60;3.65;;;;;;;;;;5063542;28;20130;-71
2021/12/07 10:07:26;;;;;;;9.13;3.97;;;;;;;;;;5072922;28;20041;-70
2021/12/07 10:09:52;;;;;;;7.20;3.83;;;;;;;;;;5080091;28;20036;-71
2021/12/07 10:12:20;;;;;;;8.95;4.55;;;;;;;;;;5073707;28;20053;-71
2021/12/07 10:14:46;;;;;;;15.40;4.07;;;;;;;;;;5072744;28;20048;-71
2021/12/07 10:17:13;;;;;;;19.65;5.93;;;;;;;;;;5077800;28;20082;-71
2021/12/07 10:19:44;;;;;;;16.38;4.35;;;;;;;;;;5078466;28;20517;-71
2021/12/07 10:22:12;;;;;;;8.05;3.50;;;;;;;;;;5078203;28;20064;-71
2021/12/07 10:24:46;;;;;;;16.67;4.68;;;;;;;;;;5070596;28;20094;-70
2021/12/07 10:27:12;;;;;;;8.23;3.97;;;;;;;;;;5075464;28;20044;-71
2021/12/07 10:29:39;;;;;;;11.98;3.80;;;;;;;;;;5071807;28;20119;-71
2021/12/07 10:32:07;;;;;;;10.32;4.00;;;;;;;;;;5073114;28;20528;-71
2021/12/07 10:34:40;;;;;;;9.55;4.35;;;;;;;;;;5074186;28;20473;-71
2021/12/07 10:37:06;;;;;;;;;;;;;;;;;;5071787;28;20098;-71
2021/12/07 10:39:34;;;;;;;10.85;4.60;;;;;;;;;;5101874;27;20344;-71
2021/12/07 10:42:02;;;;;;;11.38;4.13;;;;;;;;;;5064556;28;20045;-71
2021/12/07 10:44:32;;;;;;;8.77;3.40;;;;;;;;;;5073261;28;20064;-71
2021/12/07 10:47:04;;;;;;;7.63;3.33;;;4.10;99.90;;;;;;5073099;28;20360;-71
2021/12/07 10:49:51;;;;;;;9.75;3.85;;;5.50;99.90;;;;;;5071411;28;20398;-70
2021/12/07 10:52:27;;;;;;;9.27;4.00;;;5.50;99.90;;;;;;5062821;28;20047;-71
2021/12/07 10:54:55;;;;;;;7.03;3.85;;;5.60;99.90;;;;;;5072752;28;20033;-71
2021/12/07 10:57:27;;;;;;;12.52;4.07;;;;;;;;;;5109638;27;20036;-71
2021/12/07 11:00:03;;;;;;;5.60;2.83;;;;;;;;;;5078113;28;20115;-70
2021/12/07 11:02:33;;;;;;;12.95;4.13;;;;;;;;;;5072255;28;20444;-71
2021/12/07 11:05:00;;;;;;;13.48;4.80;;;;;;;;;;5074226;28;20149;-71
2021/12/07 11:07:27;;;;;;;8.15;3.58;;;;;;;;;;5078387;28;20463;-71
2021/12/07 11:10:07;;;;;;;10.73;3.75;;;;;;;;;;5072264;28;20040;-71
2021/12/07 11:12:40;;;;;;;5.20;3.35;;;;;;;;;;5072182;28;20041;-71
2021/12/07 11:15:14;;;;;;;13.82;3.47;;;;;;;;;;5073381;28;20032;-70
2021/12/07 11:17:40;;;;;;;14.05;4.20;;;;;;;;;;5071568;28;20055;-71
2021/12/07 11:20:07;;;;;;;13.88;3.45;;;;;;;;;;5073374;28;20065;-71
2021/12/07 11:22:35;;;;;;;14.88;4.03;;;;;;;;;;5071409;28;20082;-71
2021/12/07 11:25:03;;;;;;;12.50;3.60;;;;;;;;;;5055367;28;20091;-71
2021/12/07 11:30:16;;;;;;;9.80;3.65;;;;;;;;;;5072162;28;20048;-70
2021/12/07 11:32:51;;;;;;;9.70;3.97;;;;;;;;;;5069499;28;20047;-70
2021/12/07 11:35:20;;;;;;;10.63;3.65;;;;;;;;;;5057643;28;20045;-71
2021/12/07 11:37:46;;;;;;;7.38;3.72;;;;;;;;;;5072635;28;20044;-71
2021/12/07 11:40:17;;;;;;;13.70;3.58;;;;;;;;;;5065694;28;20072;-70
2021/12/07 11:42:43;;;;;;;11.73;3.10;;;;;;;;;;5071003;28;20048;-70
2021/12/07 11:45:12;;;;;;;8.35;3.72;;;;;;;;;;5069125;28;20051;-70
2021/12/07 11:47:43;;;;;;;10.85;3.70;;;;;;;;;;5063854;28;20046;-70
2021/12/07 11:50:29;;;;;;;13.65;3.75;;;;;;;;;;5070389;28;20051;-71
2021/12/07 11:52:58;;;;;;;10.65;2.88;;;;;;;;;;5069012;28;20128;-71
2021/12/07 11:55:25;;;;;;;6.57;3.63;;;;;;;;;;5070667;28;20040;-70
2021/12/07 11:57:52;;;;;;;17.85;3.95;;;;;;;;;;5068614;28;20398;-71
2021/12/07 12:00:23;;;;;;;5.32;3.45;;;;;;;;;;5065514;28;20048;-71
2021/12/07 12:02:50;;;;;;;10.68;3.60;;;;;;;;;;5075273;28;20425;-71
2021/12/07 12:05:16;;;;;;;6.28;2.70;;;;;;;;;;5071517;28;20043;-71
2021/12/07 12:07:45;;;;;;;9.85;3.88;;;;;;;;;;5064833;28;20041;-71
2021/12/07 12:10:12;;;;;;;10.90;3.58;;;;;;;;;;5071692;28;20055;-71
2021/12/07 12:12:38;;;;;;;9.05;3.67;;;;;;;;;;5073262;28;20061;-71
2021/12/07 12:15:17;;;;;;;8.18;3.08;;;;;;;;;;5071056;28;20040;-71
2021/12/07 12:17:54;;;;;;;7.03;3.50;;;;;;;;;;5064796;28;20042;-71
2021/12/07 12:20:39;;;;;;;9.70;3.50;;;;;;;;;;5071746;28;20051;-71
2021/12/07 12:23:12;;;;;;;9.73;3.50;;;;;;;;;;5069591;28;20057;-72
2021/12/07 12:25:38;;;;;;;7.45;3.92;;;;;;;;;;5060591;28;20052;-71
2021/12/07 12:28:04;;;;;;;9.88;4.70;;;;;;;;;;5072570;28;20036;-72
2021/12/07 12:30:35;;;;;;;9.77;3.80;;;;;;;;;;5068350;28;20048;-71
2021/12/07 12:33:07;;;;;;;10.45;4.22;;;;;;;;;;5072016;28;20036;-71
2021/12/07 12:35:38;;;;;;;10.27;3.53;;;;;;;;;;5069134;28;20127;-71
2021/12/07 12:38:14;;;;;;;13.57;3.30;;;;;;;;;;5060568;28;20037;-71
2021/12/07 12:40:41;;;;;;;10.65;4.70;;;;;;;;;;5067966;28;20089;-71
2021/12/07 12:43:07;;;;;;;10.70;3.65;;;;;;;;;;5072186;28;20371;-71
2021/12/07 12:45:36;;;;;;;10.55;3.45;;;;;;;;;;5069687;28;20102;-71
2021/12/07 12:48:10;;;;;;;3.88;2.75;;;;;;;;;;5072529;28;20041;-71
2021/12/07 12:50:42;;;;;;;13.15;3.60;;;;;;;;;;5068386;28;20545;-71
2021/12/07 12:53:11;;;;;;;13.48;3.28;;;;;;;;;;5065970;28;20085;-71
2021/12/07 12:55:37;;;;;;;13.25;3.33;;;;;;;;;;5078826;28;20161;-71
2021/12/07 12:58:05;;;;;;;13.75;3.42;;;;;;;;;;5069502;28;20040;-71
2021/12/07 13:00:50;;;;;;;6.28;4.10;;;;;;;;;;5070590;28;20048;-71
2021/12/07 13:03:16;;;;;;;11.77;4.00;;;;;;;;;;5112925;27;20051;-71
2021/12/07 13:05:45;;;;;;;7.35;4.32;;;;;;;;;;5072820;28;20072;-71
2021/12/07 13:08:12;;;;;;;9.48;3.88;;;;;;;;;;5051622;28;20498;-71
2021/12/07 13:10:59;;;;;;;6.93;3.60;;;;;;;;;;5081904;28;20040;-71
2021/12/07 13:13:32;;;;;;;10.40;3.58;;;;;;;;;;5074547;28;20041;-71
2021/12/07 13:15:59;;;;;;;8.70;3.40;;;;;;;;;;5070770;28;20048;-71
2021/12/07 13:18:32;;;;;;;9.18;3.70;;;;;;;;;;5064674;28;20522;-71
2021/12/07 13:20:58;;;;;;;8.50;3.20;;;;;;;;;;5076465;28;20048;-70
2021/12/07 13:23:29;;;;;;;10.27;3.63;;;;;;;;;;5070334;28;20041;-71
2021/12/07 13:25:56;;;;;;;5.03;3.22;;;;;;;;;;5081619;28;20538;-71
2021/12/07 13:28:22;;;;;;;9.38;3.97;;;;;;;;;;5068930;28;20480;-71
2021/12/07 13:30:51;;;;;;;12.23;4.07;;;;;;;;;;5070600;28;20063;-71
2021/12/07 13:33:37;;;;;;;6.88;3.33;;;;;;;;;;5081638;28;20037;-71
2021/12/07 13:36:22;;;;;;;8.80;3.75;;;;;;;;;;5073981;28;20047;-71
2021/12/07 13:38:49;;;;;;;7.30;3.65;;;;;;;;;;5070702;28;20512;-71
2021/12/07 13:41:15;;;;;;;8.48;3.05;;;;;;;;;;5074035;28;20032;-71
2021/12/07 13:43:42;;;;;;;7.57;3.90;;;;;;;;;;5074886;28;20040;-71
2021/12/07 13:46:09;;;;;;;12.20;4.55;;;;;;;;;;5072199;28;20040;-71
2021/12/07 13:48:36;;;;;;;11.73;3.58;;;;;;;;;;5069229;28;20442;-70
2021/12/07 13:51:02;;;;;;;8.55;4.53;;;;;;;;;;5073934;28;20116;-71
2021/12/07 13:53:28;;;;;;;13.40;4.20;;;;;;;;;;5074465;28;20074;-71
2021/12/07 13:55:54;;;;;;;10.60;3.83;;;;;;;;;;5082191;28;20043;-70
2021/12/07 13:58:21;;;;;;;9.68;3.85;;;;;;;;;;5073342;28;20083;-71
2021/12/07 14:00:47;;;;;;;8.38;3.92;;;;;;;;;;5071355;28;20040;-70
2021/12/07 14:03:18;;;;;;;12.40;3.65;;;;;;;;;;5073045;28;20402;-71
2021/12/07 14:05:44;;;;;;;7.07;4.57;;;;;;;;;;5072811;28;20041;-71
2021/12/07 14:08:15;;;;;;;9.27;4.20;;;;;;;;;;5072010;28;20120;-70
2021/12/07 14:10:42;;;;;;;9.90;4.60;;;;;;;;;;5083391;28;20036;-70
2021/12/07 14:13:09;;;;;;;10.65;4.80;;;;;;;;;;5071023;28;20153;-70
2021/12/07 14:15:36;;;;;;;11.43;4.68;;;;;;;;;;5103573;28;20040;-70
2021/12/07 14:18:10;;;;;;;10.43;4.45;;;;;;;;;;5068639;28;20090;-70
2021/12/07 14:20:40;;;;;;;8.57;4.03;;;;;;;;;;5073011;28;20051;-70
2021/12/07 14:23:22;;;;;;;10.88;4.35;;;;;;;;;;5080200;28;20490;-70
2021/12/07 14:25:53;;;;;;;10.48;4.15;;;;;;;;;;5071357;28;20110;-70
2021/12/07 14:28:27;;;;;;;13.73;4.38;;;;;;;;;;5071876;28;20055;-71
2021/12/07 14:30:57;;;;;;;9.23;3.67;;;;;;;;;;5066857;28;20032;-70
2021/12/07 14:33:23;;;;;;;13.20;4.18;;;;;;;;;;5075991;28;20173;-70
2021/12/07 14:35:49;;;;;;;18.38;4.50;;;;;;;;;;5071845;28;20132;-70
2021/12/07 14:38:15;;;;;;;9.35;3.90;;;;;;;;;;5072946;28;20493;-70
2021/12/07 14:40:45;;;;;;;10.40;3.85;;;;;;;;;;5073330;28;20040;-71
2021/12/07 14:43:12;;;;;;;10.52;4.10;;;;;;;;;;5071664;28;20055;-70
2021/12/07 14:45:38;;;;;;;9.75;4.03;;;;;;;;;;5068697;28;20042;-71
2021/12/07 14:48:05;;;;;;;11.18;4.30;;;;;;;;;;5071648;28;20040;-70
2021/12/07 14:50:32;;;;;;;14.23;5.00;;;;;;;;;;5071554;28;20044;-70
2021/12/07 14:52:58;;;;;;;11.18;3.70;;;;;;;;;;5070031;28;20048;-71
2021/12/07 14:55:24;;;;;;;11.95;4.55;;;;;;;;;;5082342;28;20040;-71
2021/12/07 14:57:50;;;;;;;14.50;4.68;;;;;;;;;;5070724;28;20071;-70
2021/12/07 15:00:18;;;;;;;11.88;4.22;;;;;;;;;;5071327;28;20075;-70
2021/12/07 15:02:46;;;;;;;14.35;4.43;;;;;;;;;;5073426;28;20394;-70
2021/12/07 15:05:12;;;;;;;9.45;5.28;;;;;;;;;;5071147;28;20114;-70
2021/12/07 15:07:39;;;;;;;12.80;4.78;;;;;;;;;;5063173;28;20461;-70
2021/12/07 15:10:07;;;;;;;21.90;6.00;;;;;;;;;;5067346;28;20131;-70
2021/12/07 15:12:37;;;;;;;11.23;5.78;;;;;;;;;;5070461;28;20040;-71
2021/12/07 15:15:03;;;;;;;8.75;5.00;;;;;;;;;;5072483;28;20895;-70
2021/12/07 15:17:32;;;;;;;14.18;5.47;;;;;;;;;;5074961;28;20997;-70
2021/12/07 15:20:04;;;;;;;9.82;5.05;;;;;;;;;;5070580;28;20084;-70
2021/12/07 15:22:31;;;;;;;22.75;5.00;;;;;;;;;;5071833;28;20135;-70
2021/12/07 15:24:57;;;;;;;11.43;5.72;;;;;;;;;;5072807;28;20093;-70
2021/12/07 15:27:24;;;;;;;18.70;6.05;;;;;;;;;;5071110;28;20040;-70
2021/12/07 15:29:54;;;;;;;15.82;6.85;;;;;;;;;;5067340;28;20055;-70
2021/12/07 15:32:21;;;;;;;24.35;9.57;;;;;;;;;;5070610;28;20044;-71
2021/12/07 15:34:48;;;;;;;23.45;8.52;;;;;;;;;;5065464;28;20673;-70
2021/12/07 15:37:25;;;;;;;17.13;7.97;;;;;;;;;;5076057;28;20028;-70
2021/12/07 15:39:52;;;;;;;28.05;9.50;;;;;;;;;;5075398;28;20036;-71
2021/12/07 15:42:23;;;;;;;21.75;8.25;;;;;;;;;;5071808;28;20044;-70
2021/12/07 15:44:54;;;;;;;14.80;8.48;;;;;;;;;;5071179;28;20119;-71
2021/12/07 15:47:28;;;;;;;14.60;9.10;;;;;;;;;;5069375;28;20401;-71
2021/12/07 15:49:56;;;;;;;17.73;9.25;;;;;;;;;;5070454;28;20047;-70
2021/12/07 15:52:29;;;;;;;15.55;8.25;;;;;;;;;;5072910;28;20036;-70
2021/12/07 15:55:04;;;;;;;14.30;9.93;;;;;;;;;;5074754;28;20117;-70
2021/12/07 15:57:40;;;;;;;14.95;9.13;;;;;;;;;;5076794;28;20078;-70
2021/12/07 16:00:07;;;;;;;13.10;8.63;;;;;;;;;;5102869;27;20119;-70
2021/12/07 16:02:33;;;;;;;16.85;9.10;;;;;;;;;;5070062;28;20040;-70
2021/12/07 16:05:07;;;;;;;19.05;9.32;;;;;;;;;;5070104;28;20041;-70
2021/12/07 16:07:33;;;;;;;16.70;8.70;;;;;;;;;;5081837;28;20036;-70
2021/12/07 16:10:06;;;;;;;21.17;8.55;;;;;;;;;;5077533;28;20136;-70
2021/12/07 16:12:33;;;;;;;15.30;8.82;;;;;;;;;;5074470;28;20040;-71
2021/12/07 16:15:06;;;;;;;15.98;9.10;;;;;;;;;;5053610;28;20079;-70
2021/12/07 16:17:32;;;;;;;15.82;8.82;;;;;;;;;;5108957;27;20082;-70
2021/12/07 16:19:58;;;;;;;17.73;8.60;;;;;;;;;;5071817;28;20048;-70